createdAt,value
2022-09-10T00:01:39.639Z,99.90
2022-09-10T00:04:12.397Z,99.90
2022-09-10T00:06:41.020Z,99.90
2022-09-10T00:09:10.751Z,99.90
2022-09-10T00:11:41.973Z,99.90
2022-09-10T00:14:15.962Z,99.90
2022-09-10T00:16:44.548Z,99.90
2022-09-10T00:19:14.793Z,99.90
2022-09-10T00:21:44.301Z,99.90
2022-09-10T00:24:12.639Z,99.90
2022-09-10T00:26:42.143Z,99.90
2022-09-10T00:29:15.837Z,99.90
2022-09-10T00:31:44.874Z,99.90
2022-09-10T00:34:14.291Z,99.90
2022-09-10T00:36:44.304Z,99.90
2022-09-10T00:39:15.353Z,99.90
2022-09-10T00:41:48.284Z,99.90
2022-09-10T00:45:02.684Z,99.90
2022-09-10T00:47:36.498Z,99.90
2022-09-10T00:50:21.525Z,99.90
2022-09-10T00:52:50.772Z,99.90
2022-09-10T00:55:19.953Z,99.90
2022-09-10T00:57:55.783Z,99.90
2022-09-10T01:00:24.424Z,99.90
2022-09-10T01:02:52.986Z,99.90
2022-09-10T01:05:22.224Z,99.90
2022-09-10T01:07:50.534Z,99.90
2022-09-10T01:10:26.849Z,99.90
2022-09-10T01:13:25.674Z,99.90
2022-09-10T01:16:08.868Z,99.90
2022-09-10T01:18:52.457Z,99.90
2022-09-10T01:21:34.068Z,99.90
2022-09-10T01:24:36.784Z,99.90
2022-09-10T01:27:39.233Z,99.90
2022-09-10T01:30:15.143Z,99.90
2022-09-10T01:32:59.367Z,99.90
2022-09-10T01:35:38.310Z,99.90
2022-09-10T01:38:15.177Z,99.90
2022-09-10T01:40:46.357Z,99.90
2022-09-10T01:43:15.861Z,99.90
2022-09-10T01:45:59.451Z,99.90
2022-09-10T01:48:54.115Z,99.90
2022-09-10T01:51:34.388Z,99.90
2022-09-10T01:54:26.800Z,99.90
2022-09-10T01:57:10.727Z,99.90
2022-09-10T01:59:50.871Z,99.90
2022-09-10T02:02:28.780Z,99.90
2022-09-10T02:04:58.486Z,99.90
2022-09-10T02:07:29.312Z,99.90
2022-09-10T02:09:57.566Z,99.90
2022-09-10T02:12:25.818Z,99.90
2022-09-10T02:14:57.989Z,99.90
2022-09-10T02:17:32.017Z,99.90
2022-09-10T02:20:03.182Z,99.90
2022-09-10T02:22:36.293Z,99.90
2022-09-10T02:25:06.662Z,99.90
2022-09-10T02:27:35.445Z,99.90
2022-09-10T02:30:06.976Z,99.90
2022-09-10T02:32:35.291Z,99.90
2022-09-10T02:35:03.414Z,99.90
2022-09-10T02:37:31.459Z,99.90
2022-09-10T02:39:59.625Z,99.90
2022-09-10T02:42:27.654Z,99.90
2022-09-10T02:44:56.477Z,99.90
2022-09-10T02:47:26.400Z,99.90
2022-09-10T02:49:54.524Z,99.90
2022-09-10T02:52:23.024Z,99.90
2022-09-10T02:54:51.359Z,99.90
2022-09-10T02:57:19.488Z,99.90
2022-09-10T02:59:47.447Z,99.90
2022-09-10T03:02:15.499Z,99.90
2022-09-10T03:04:44.973Z,99.90
2022-09-10T03:07:17.043Z,99.90
2022-09-10T03:09:45.068Z,99.90
2022-09-10T03:12:15.038Z,99.90
2022-09-10T03:14:43.262Z,99.90
2022-09-10T03:17:11.902Z,99.90
2022-09-10T03:19:40.425Z,99.90
2022-09-10T03:22:11.215Z,99.90
2022-09-10T03:24:39.299Z,99.90
2022-09-10T03:27:08.528Z,99.90
2022-09-10T03:29:36.613Z,99.90
2022-09-10T03:32:04.693Z,99.90
2022-09-10T03:34:32.766Z,99.90
2022-09-10T03:37:00.947Z,99.90
2022-09-10T03:39:30.762Z,99.90
2022-09-10T03:41:59.454Z,99.90
2022-09-10T03:44:27.589Z,99.90
2022-09-10T03:46:55.760Z,99.90
2022-09-10T03:49:23.935Z,99.90
2022-09-10T03:51:51.943Z,99.90
2022-09-10T03:54:19.991Z,99.90
2022-09-10T03:56:49.357Z,99.90
2022-09-10T03:59:17.584Z,99.90
2022-09-10T04:01:46.173Z,99.90
2022-09-10T04:04:14.916Z,99.90
2022-09-10T04:06:44.536Z,99.90
2022-09-10T04:09:12.925Z,99.90
2022-09-10T04:11:40.941Z,99.90
2022-09-10T04:14:10.492Z,99.90
2022-09-10T04:16:38.637Z,99.90
2022-09-10T04:19:06.738Z,99.90
2022-09-10T04:21:34.870Z,99.90
2022-09-10T04:24:03.645Z,99.90
2022-09-10T04:26:31.741Z,99.90
2022-09-10T04:28:59.778Z,99.90
2022-09-10T04:31:29.292Z,99.90
2022-09-10T04:34:01.279Z,99.90
2022-09-10T04:36:32.173Z,99.90
2022-09-10T04:39:00.182Z,99.90
2022-09-10T04:41:28.250Z,99.90
2022-09-10T04:43:56.303Z,99.90
2022-09-10T04:46:24.731Z,99.90
2022-09-10T04:48:54.246Z,99.90
2022-09-10T04:51:22.273Z,99.90
2022-09-10T04:53:50.351Z,99.90
2022-09-10T04:56:19.952Z,99.90
2022-09-10T04:58:48.800Z,99.90
2022-09-10T05:01:17.094Z,99.90
2022-09-10T05:03:45.348Z,99.90
2022-09-10T05:06:14.778Z,99.90
2022-09-10T05:08:42.826Z,99.90
2022-09-10T05:11:11.459Z,99.90
2022-09-10T05:13:39.526Z,99.90
2022-09-10T05:16:08.743Z,99.90
2022-09-10T05:18:36.879Z,99.90
2022-09-10T05:21:05.313Z,99.90
2022-09-10T05:23:35.057Z,99.90
2022-09-10T05:26:03.134Z,99.90
2022-09-10T05:28:31.325Z,99.90
2022-09-10T05:30:59.630Z,99.90
2022-09-10T05:33:28.055Z,99.90
2022-09-10T05:35:56.365Z,99.90
2022-09-10T05:38:25.021Z,99.90
2022-09-10T05:40:54.713Z,99.90
2022-09-10T05:43:22.711Z,99.90
2022-09-10T05:45:51.946Z,99.90
2022-09-10T05:48:20.475Z,99.90
2022-09-10T05:50:48.754Z,99.90
2022-09-10T05:53:16.971Z,99.90
2022-09-10T05:55:45.995Z,99.90
2022-09-10T05:58:16.187Z,99.90
2022-09-10T06:00:44.284Z,99.90
2022-09-10T06:03:12.795Z,99.90
2022-09-10T06:05:41.271Z,99.90
2022-09-10T06:08:09.386Z,99.90
2022-09-10T06:10:37.389Z,99.90
2022-09-10T06:13:06.760Z,99.90
2022-09-10T06:15:37.891Z,99.90
2022-09-10T06:18:05.978Z,99.90
2022-09-10T06:20:34.278Z,99.90
2022-09-10T06:23:02.367Z,99.90
2022-09-10T06:25:31.324Z,99.90
2022-09-10T06:27:59.412Z,99.90
2022-09-10T06:30:27.853Z,99.90
2022-09-10T06:32:57.640Z,99.90
2022-09-10T06:35:27.121Z,99.90
2022-09-10T06:37:55.885Z,99.90
2022-09-10T06:40:27.580Z,99.90
2022-09-10T06:42:55.589Z,99.90
2022-09-10T06:45:24.240Z,99.90
2022-09-10T06:48:37.044Z,99.90
2022-09-10T06:50:53.164Z,99.90
2022-09-10T06:53:23.023Z,99.90
2022-09-10T06:55:52.354Z,99.90
2022-09-10T06:58:23.408Z,99.90
2022-09-10T07:00:52.682Z,99.90
2022-09-10T07:03:23.348Z,99.90
2022-09-10T07:05:53.405Z,99.90
2022-09-10T07:08:22.440Z,99.90
2022-09-10T07:10:50.553Z,99.90
2022-09-10T07:13:18.822Z,99.90
2022-09-10T07:15:47.773Z,99.90
2022-09-10T07:18:16.338Z,99.90
2022-09-10T07:20:46.175Z,99.90
2022-09-10T07:23:19.340Z,99.90
2022-09-10T07:25:48.644Z,99.90
2022-09-10T07:28:19.578Z,99.90
2022-09-10T07:30:47.654Z,99.90
2022-09-10T07:33:15.683Z,99.90
2022-09-10T07:35:44.230Z,99.90
2022-09-10T07:38:16.940Z,99.90
2022-09-10T07:40:45.020Z,99.90
2022-09-10T07:43:13.240Z,99.90
2022-09-10T07:45:42.219Z,99.90
2022-09-10T07:48:12.465Z,99.90
2022-09-10T07:50:40.786Z,8.50
2022-09-10T07:53:08.807Z,1.00
2022-09-10T07:55:38.460Z,1.00
2022-09-10T07:58:06.767Z,1.00
2022-09-10T08:00:37.233Z,1.00
2022-09-10T08:03:05.501Z,1.00
2022-09-10T08:05:33.764Z,1.00
2022-09-10T08:08:01.854Z,1.00
2022-09-10T08:10:30.048Z,1.00
2022-09-10T08:12:59.658Z,1.00
2022-09-10T08:15:28.289Z,1.00
2022-09-10T08:17:56.715Z,1.00
2022-09-10T08:20:26.685Z,1.00
2022-09-10T08:22:57.315Z,1.00
2022-09-10T08:25:25.381Z,1.00
2022-09-10T08:27:54.400Z,1.00
2022-09-10T08:30:24.003Z,1.00
2022-09-10T08:32:52.097Z,1.00
2022-09-10T08:35:20.891Z,1.00
2022-09-10T08:37:48.886Z,1.00
2022-09-10T08:40:18.270Z,1.00
2022-09-10T08:42:51.078Z,1.00
2022-09-10T08:45:26.306Z,1.00
2022-09-10T08:48:02.297Z,1.00
2022-09-10T08:50:42.927Z,1.00
2022-09-10T08:53:27.092Z,1.00
2022-09-10T08:56:02.803Z,99.90
2022-09-10T08:58:43.416Z,1.00
2022-09-10T09:01:22.448Z,1.00
2022-09-10T09:03:54.852Z,1.00
2022-09-10T09:06:31.221Z,1.00
2022-09-10T09:09:02.015Z,1.00
2022-09-10T09:11:43.037Z,99.90
2022-09-10T09:14:58.501Z,1.00
2022-09-10T09:17:52.410Z,99.90
2022-09-10T09:20:35.970Z,65.70
2022-09-10T09:23:20.434Z,99.90
2022-09-10T09:25:51.349Z,99.90
2022-09-10T09:28:37.610Z,1.00
2022-09-10T09:31:13.943Z,99.90
2022-09-10T09:33:46.106Z,1.00
2022-09-10T09:36:31.194Z,99.90
2022-09-10T09:38:59.325Z,1.00
2022-09-10T09:41:43.294Z,99.90
2022-09-10T09:44:24.080Z,1.00
2022-09-10T09:46:52.181Z,1.00
2022-09-10T09:49:22.150Z,99.90
2022-09-10T09:51:51.807Z,2.00
2022-09-10T09:57:19.542Z,99.90
2022-09-10T09:59:49.678Z,1.00
2022-09-10T10:02:22.703Z,99.90
2022-09-10T10:05:09.472Z,99.90
2022-09-10T10:07:38.058Z,99.90
2022-09-10T10:10:08.836Z,1.00
2022-09-10T10:12:50.733Z,99.90
2022-09-10T10:15:38.744Z,99.90
2022-09-10T10:18:32.650Z,99.90
2022-09-10T10:21:19.944Z,99.90
2022-09-10T10:23:49.482Z,99.90
2022-09-10T10:26:30.367Z,1.00
2022-09-10T10:29:06.481Z,99.90
2022-09-10T10:31:42.044Z,99.90
2022-09-10T10:34:42.050Z,54.20
2022-09-10T10:37:38.398Z,99.90
2022-09-10T10:40:26.476Z,99.90
2022-09-10T10:43:11.751Z,99.90
2022-09-10T10:45:57.105Z,1.00
2022-09-10T10:48:44.707Z,99.90
2022-09-10T10:51:24.983Z,99.90
2022-09-10T10:54:15.215Z,85.90
2022-09-10T10:56:56.180Z,99.90
2022-09-10T10:59:50.264Z,99.90
2022-09-10T11:02:39.436Z,1.00
2022-09-10T11:05:31.543Z,99.90
2022-09-10T11:08:07.152Z,99.90
2022-09-10T11:10:44.478Z,99.90
2022-09-10T11:13:21.909Z,23.80
2022-09-10T11:15:59.303Z,99.90
2022-09-10T11:18:35.187Z,99.90
2022-09-10T11:21:15.595Z,1.00
2022-09-10T11:23:51.536Z,62.20
2022-09-10T11:26:28.374Z,1.00
2022-09-10T11:29:14.662Z,1.00
2022-09-10T11:31:48.889Z,99.90
2022-09-10T11:34:29.263Z,1.00
2022-09-10T11:37:06.306Z,1.00
2022-09-10T11:39:39.628Z,99.90
2022-09-10T11:42:21.103Z,99.90
2022-09-10T11:45:01.953Z,99.90
2022-09-10T11:47:38.311Z,99.90
2022-09-10T11:50:21.665Z,99.90
2022-09-10T11:52:50.508Z,99.90
2022-09-10T11:55:19.109Z,99.90
2022-09-10T11:58:06.852Z,1.00
2022-09-10T12:00:52.689Z,1.00
2022-09-10T12:04:01.650Z,1.00
2022-09-10T12:06:46.194Z,1.00
2022-09-10T12:09:25.733Z,1.00
2022-09-10T12:12:07.552Z,1.00
2022-09-10T12:14:41.507Z,1.00
2022-09-10T12:17:18.426Z,1.00
2022-09-10T12:19:51.784Z,1.00
2022-09-10T12:22:26.825Z,1.00
2022-09-10T12:25:01.536Z,1.00
2022-09-10T12:27:48.896Z,1.00
2022-09-10T12:31:03.118Z,1.00
2022-09-10T12:34:18.037Z,1.00
2022-09-10T12:37:26.411Z,1.00
2022-09-10T12:40:49.403Z,1.00
2022-09-10T12:43:55.844Z,1.00
2022-09-10T12:46:26.905Z,99.90
2022-09-10T12:49:13.398Z,1.00
2022-09-10T12:51:59.665Z,1.00
2022-09-10T12:54:52.518Z,1.00
2022-09-10T12:57:41.220Z,1.00
2022-09-10T13:00:21.969Z,1.00
2022-09-10T13:02:59.142Z,1.00
2022-09-10T13:05:33.133Z,1.00
2022-09-10T13:08:18.449Z,1.00
2022-09-10T13:10:50.913Z,1.00
2022-09-10T13:13:41.179Z,1.00
2022-09-10T13:16:18.234Z,1.00
2022-09-10T13:18:55.069Z,1.00
2022-09-10T13:21:55.079Z,1.00
2022-09-10T13:25:01.028Z,1.00
2022-09-10T13:27:41.618Z,99.90
2022-09-10T13:30:19.239Z,99.90
2022-09-10T13:32:52.998Z,99.90
2022-09-10T13:36:01.467Z,99.90
2022-09-10T13:39:08.517Z,99.90
2022-09-10T13:42:08.851Z,99.90
2022-09-10T13:45:09.177Z,99.90
2022-09-10T13:47:47.091Z,99.90
2022-09-10T13:50:20.472Z,99.90
2022-09-10T13:52:56.719Z,99.90
2022-09-10T13:55:29.757Z,99.90
2022-09-10T13:58:05.924Z,99.90
2022-09-10T14:00:42.360Z,99.90
2022-09-10T14:03:23.219Z,99.90
2022-09-10T14:05:55.196Z,99.90
2022-09-10T14:08:30.754Z,99.90
2022-09-10T14:11:06.724Z,99.90
2022-09-10T14:13:40.772Z,99.90
2022-09-10T14:16:14.169Z,99.90
2022-09-10T14:18:46.899Z,99.90
2022-09-10T14:21:17.124Z,99.90
2022-09-10T14:23:49.239Z,99.90
2022-09-10T14:26:24.162Z,99.90
2022-09-10T14:28:58.908Z,99.90
2022-09-10T14:31:37.633Z,99.90
2022-09-10T14:34:27.223Z,99.90
2022-09-10T14:36:55.407Z,99.90
2022-09-10T14:39:26.327Z,99.90
2022-09-10T14:42:12.001Z,99.90
2022-09-10T14:44:44.342Z,99.90
2022-09-10T14:47:29.002Z,99.90
2022-09-10T14:50:31.930Z,1.00
2022-09-10T14:53:00.119Z,1.00
2022-09-10T14:55:33.128Z,1.00
2022-09-10T14:58:01.547Z,1.00
2022-09-10T15:00:32.483Z,1.00
2022-09-10T15:03:00.661Z,99.90
2022-09-10T15:05:29.746Z,99.90
2022-09-10T15:07:58.183Z,99.90
2022-09-10T15:10:26.382Z,99.90
2022-09-10T15:12:58.891Z,99.90
2022-09-10T15:15:28.043Z,99.90
2022-09-10T15:17:57.243Z,99.90
2022-09-10T15:20:27.990Z,99.90
2022-09-10T15:22:56.440Z,99.90
2022-09-10T15:25:38.550Z,99.90
2022-09-10T15:28:08.690Z,99.90
2022-09-10T15:30:37.059Z,99.90
2022-09-10T15:33:06.784Z,99.90
2022-09-10T15:35:35.029Z,99.90
2022-09-10T15:38:03.314Z,99.90
2022-09-10T15:40:31.885Z,99.90
2022-09-10T15:43:00.161Z,99.90
2022-09-10T15:45:29.559Z,1.00
2022-09-10T15:47:57.954Z,1.00
2022-09-10T15:50:26.328Z,1.00
2022-09-10T15:52:54.359Z,1.00
2022-09-10T15:55:22.478Z,4.00
2022-09-10T15:57:51.352Z,99.90
2022-09-10T16:00:20.442Z,1.00
2022-09-10T16:02:53.873Z,1.00
2022-09-10T16:05:22.486Z,99.90
2022-09-10T16:07:50.535Z,99.90
2022-09-10T16:10:18.681Z,99.90
2022-09-10T16:12:46.722Z,1.00
2022-09-10T16:15:14.882Z,1.00
2022-09-10T16:17:42.957Z,1.00
2022-09-10T16:20:12.929Z,99.90
2022-09-10T16:22:41.273Z,1.00
2022-09-10T16:25:10.116Z,1.00
2022-09-10T16:27:42.611Z,1.00
2022-09-10T16:30:13.752Z,1.00
2022-09-10T16:32:41.872Z,1.00
2022-09-10T16:35:11.944Z,1.00
2022-09-10T16:37:40.091Z,1.00
2022-09-10T16:40:11.330Z,1.00
2022-09-10T16:42:39.437Z,1.00
2022-09-10T16:45:09.377Z,1.00
2022-09-10T16:47:38.071Z,99.90
2022-09-10T16:50:06.957Z,94.30
2022-09-10T16:52:36.793Z,99.90
2022-09-10T16:55:07.114Z,1.00
2022-09-10T16:57:35.250Z,99.90
2022-09-10T17:00:05.934Z,1.00
2022-09-10T17:02:35.180Z,99.90
2022-09-10T17:05:03.366Z,1.00
2022-09-10T17:07:31.437Z,1.00
2022-09-10T17:10:01.251Z,1.00
2022-09-10T17:12:29.483Z,41.30
2022-09-10T17:14:57.583Z,1.00
2022-09-10T17:17:27.238Z,99.90
2022-09-10T17:19:56.171Z,1.00
2022-09-10T17:22:24.345Z,1.00
2022-09-10T17:24:53.984Z,1.00
2022-09-10T17:27:25.583Z,1.00
2022-09-10T17:29:55.121Z,1.00
2022-09-10T17:32:23.855Z,1.00
2022-09-10T17:34:51.926Z,1.00
2022-09-10T17:37:20.238Z,1.00
2022-09-10T17:39:48.310Z,99.90
2022-09-10T17:42:16.333Z,1.00
2022-09-10T17:44:47.145Z,99.90
2022-09-10T17:47:15.297Z,99.90
2022-09-10T17:49:43.531Z,99.90
2022-09-10T17:52:11.662Z,99.90
2022-09-10T17:54:39.947Z,1.00
2022-09-10T17:57:08.324Z,1.00
2022-09-10T17:59:37.169Z,99.90
2022-09-10T18:02:07.985Z,1.00
2022-09-10T18:04:36.477Z,99.90
2022-09-10T18:07:04.597Z,1.00
2022-09-10T18:09:32.784Z,99.90
2022-09-10T18:12:01.365Z,1.00
2022-09-10T18:14:29.551Z,1.00
2022-09-10T18:16:58.316Z,1.00
2022-09-10T18:19:27.988Z,99.60
2022-09-10T18:21:56.030Z,99.90
2022-09-10T18:24:25.051Z,1.00
2022-09-10T18:26:56.341Z,1.00
2022-09-10T18:29:27.138Z,1.00
2022-09-10T18:31:57.628Z,1.00
2022-09-10T18:34:29.824Z,1.00
2022-09-10T18:37:00.516Z,1.00
2022-09-10T18:39:31.694Z,1.00
2022-09-10T18:42:00.885Z,1.00
2022-09-10T18:44:33.125Z,1.00
2022-09-10T18:47:01.230Z,1.00
2022-09-10T18:49:30.894Z,1.00
2022-09-10T18:51:59.207Z,1.00
2022-09-10T18:54:29.556Z,1.00
2022-09-10T18:56:58.660Z,1.00
2022-09-10T18:59:27.965Z,1.00
2022-09-10T19:01:57.031Z,1.00
2022-09-10T19:04:28.038Z,13.80
2022-09-10T19:06:58.973Z,10.80
2022-09-10T19:09:29.621Z,16.50
2022-09-10T19:12:00.295Z,24.20
2022-09-10T19:14:30.766Z,31.10
2022-09-10T19:17:01.187Z,6.10
2022-09-10T19:19:32.099Z,17.70
2022-09-10T19:22:06.998Z,16.80
2022-09-10T19:24:55.011Z,15.60
2022-09-10T19:27:23.826Z,30.30
2022-09-10T19:29:52.228Z,36.60
2022-09-10T19:32:21.067Z,33.80
2022-09-10T19:34:51.008Z,34.80
2022-09-10T19:37:21.035Z,46.00
2022-09-10T19:39:49.748Z,51.50
2022-09-10T19:42:18.217Z,47.90
2022-09-10T19:44:46.287Z,35.30
2022-09-10T19:47:14.371Z,6.10
2022-09-10T19:49:42.404Z,1.00
2022-09-10T19:52:11.111Z,1.00
2022-09-10T19:54:40.610Z,1.00
2022-09-10T19:57:08.660Z,1.40
2022-09-10T19:59:36.984Z,15.50
2022-09-10T20:02:05.296Z,23.40
2022-09-10T20:04:36.698Z,12.30
2022-09-10T20:07:05.072Z,11.20
2022-09-10T20:09:37.907Z,19.50
2022-09-10T20:12:09.723Z,16.30
2022-09-10T20:14:38.344Z,24.80
2022-09-10T20:17:06.515Z,25.60
2022-09-10T20:19:35.613Z,28.10
2022-09-10T20:22:03.748Z,31.60
2022-09-10T20:24:32.196Z,40.70
2022-09-10T20:27:00.189Z,39.80
2022-09-10T20:29:32.835Z,48.40
2022-09-10T20:32:01.305Z,53.10
2022-09-10T20:34:29.469Z,59.30
2022-09-10T20:36:57.682Z,57.70
2022-09-10T20:39:25.954Z,53.40
2022-09-10T20:41:54.841Z,55.50
2022-09-10T20:44:23.288Z,55.00
2022-09-10T20:46:53.188Z,33.40
2022-09-10T20:49:21.404Z,45.30
2022-09-10T20:51:49.487Z,50.60
2022-09-10T20:54:20.005Z,61.30
2022-09-10T20:56:48.278Z,52.00
2022-09-10T20:59:19.230Z,69.00
2022-09-10T21:01:50.716Z,96.90
2022-09-10T21:04:21.847Z,99.90
2022-09-10T21:06:50.092Z,99.90
2022-09-10T21:09:18.460Z,99.90
2022-09-10T21:11:46.575Z,99.90
2022-09-10T21:14:15.004Z,99.90
2022-09-10T21:16:43.528Z,99.90
2022-09-10T21:19:13.853Z,99.90
2022-09-10T21:21:45.963Z,99.90
2022-09-10T21:24:16.654Z,99.90
2022-09-10T21:26:45.881Z,99.90
2022-09-10T21:29:16.851Z,99.90
2022-09-10T21:31:46.235Z,99.90
2022-09-10T21:34:15.244Z,99.90
2022-09-10T21:36:45.132Z,99.90
2022-09-10T21:39:15.774Z,99.90
2022-09-10T21:41:47.403Z,99.90
2022-09-10T21:44:17.538Z,99.90
2022-09-10T21:46:47.647Z,99.90
2022-09-10T21:49:16.831Z,99.90
2022-09-10T21:51:46.670Z,99.90
2022-09-10T21:54:18.517Z,99.90
2022-09-10T21:56:47.560Z,99.90
2022-09-10T21:59:16.639Z,99.90
2022-09-10T22:01:47.426Z,99.90
2022-09-10T22:04:22.187Z,99.90
2022-09-10T22:06:53.872Z,99.90
2022-09-10T22:09:22.267Z,99.90
2022-09-10T22:11:54.117Z,99.90
2022-09-10T22:14:24.758Z,99.90
2022-09-10T22:16:54.952Z,99.90
2022-09-10T22:19:25.906Z,99.90
2022-09-10T22:21:56.804Z,99.90
2022-09-10T22:24:26.083Z,99.90
2022-09-10T22:26:54.501Z,99.90
2022-09-10T22:29:22.807Z,99.90
2022-09-10T22:31:51.234Z,99.90
2022-09-10T22:34:20.678Z,99.90
2022-09-10T22:36:49.489Z,99.90
2022-09-10T22:39:22.003Z,99.90
2022-09-10T22:41:51.905Z,99.90
2022-09-10T22:44:20.504Z,99.90
2022-09-10T22:46:48.851Z,99.90
2022-09-10T22:49:17.927Z,99.90
2022-09-10T22:51:46.024Z,99.90
2022-09-10T22:54:14.786Z,99.90
2022-09-10T22:56:44.463Z,99.90
2022-09-10T22:59:14.669Z,99.90
2022-09-10T23:01:45.913Z,99.90
2022-09-10T23:04:14.148Z,99.90
2022-09-10T23:06:42.176Z,99.90
2022-09-10T23:09:16.073Z,99.90
2022-09-10T23:11:47.682Z,99.90
2022-09-10T23:14:19.254Z,99.90
2022-09-10T23:16:51.837Z,99.90
2022-09-10T23:19:21.968Z,99.90
2022-09-10T23:21:53.242Z,99.90
2022-09-10T23:24:26.269Z,99.90
2022-09-10T23:26:56.713Z,99.90
2022-09-10T23:29:27.246Z,99.90
2022-09-10T23:31:55.231Z,99.90
2022-09-10T23:34:24.168Z,99.90
2022-09-10T23:36:53.434Z,99.90
2022-09-10T23:39:24.359Z,99.90
2022-09-10T23:41:56.665Z,99.90
2022-09-10T23:44:25.008Z,99.90
2022-09-10T23:46:53.604Z,99.90
2022-09-10T23:49:21.601Z,99.90
2022-09-10T23:51:49.796Z,99.90
2022-09-10T23:54:18.258Z,99.90
2022-09-10T23:56:46.472Z,99.90
2022-09-10T23:59:16.328Z,99.90
